Baruunkharaa, Mongolia
Current Conditions -  °F | °C
As of 1:00 PM on Thursday 23 Oct 2014 (Local Time) from ZMUB Reporting Station
Broken Clouds Broken Clouds  
Wind Chill: 44°   Ceiling: 25000
Heat Index: 46°   Visibility: 6mi
Dew Point: 21°   Wind: 4mph
Humidity: 37%   Direction: NA
Pressure: 29.8"   Gusts: NA
Location:  48.92°N, 106.07°E
Report Text: ZMUB 230500Z VRB02MPS 9999 BKN250 08/M06 Q1009 NOSIG RMK QFE650.3 36 MOP
Loading
Personal Weather Stations






























Interactive Weather Map
Tropical Storm Tracking
New forecast layout! Learn more

10-Day Weather Forecast

Advertisements
Track Severe Weather on mobile